Kezdőlap
METAR-TAF:

METAR-TAF

Repülőterek :

Kristianstad, Svédország

földrajzi szélesség: 55-55N, földrajzi hosszúság: 014-05E, magasság: 23 m

Jelenlegi meteorológiai megfigyelések

A jelentés 16 perccel ezelõtt készült, 21:20 UTC
Nyugat-északnyugati szél 7 kt
Hőmérséklet 16°C
Páratartalom 88%
Légköri nyomás 1018 hPa
Látótávolság 10 km, vagy több

METAR: ESMK 192120Z AUTO 29007KT 9999 NCD 16/14 Q1018

Idő: 23:36 (21:36 UTC)

Előrejelzés

A jelentés 10 órával és 29 perccel ezelõtt készült, 11:07 UTC
Az előrejelzés 19-én 12 óra UTC és 19-én 14 óra UTC között érvényes
Nyugat-északnyugati szél 10 kt
Látótávolság 10 km, vagy több
felhőtlen 1500 m magasságban, és nincs gomolyfelhõ

TAF: ESMK 191107Z 1912/1914 29010KT CAVOK

Meteorológiai megfigyelések és előrejelzések több, mint 4000 repülőtéren (METAR és TAF jelentéseket).

A térképen piros és sárga pontok jelzik az elérhető meteorológiai állomásokat.

Mozgassa az egeret a pont fölött, hogy megjelenjen az állomás neve.

Azután kattintson az időjárási megfigyelések és előrejelzések megtekintéséhez.

A térkép megváltoztatása: kattintson a fekete keresztel jelölt zöld gombra ráközelítéshez, a vonallal jelölt zöld gombra távolításhoz, vagy a zöld nyilakra a szomszédos térképek eléréséhez.


METAR-TAF: